Time;durP1;ratioP1;P1;durP2;ratioP2;P2;SDS_P1;SDS_P2;PMS_P1;PMS_P2;Temp;Humidity;BMP_temperature;BMP_pressure;BME280_temperature;BME280_humidity;BME280_pressure;Samples;Min_cycle;Max_cycle;Signal;HPM_P1;HPM_P2
2023/07/27 00:01:55;;;;;;;8.52;7.55;;;;;;;18.74;100.00;63940.94;5091121;28;20423;-79
2023/07/27 00:04:24;;;;;;;10.43;8.90;;;;;;;18.72;100.00;63938.84;5075788;28;20225;-79
2023/07/27 00:06:53;;;;;;;8.85;7.95;;;;;;;18.69;100.00;63933.13;5073273;28;20197;-80
2023/07/27 00:09:19;;;;;;;9.82;8.85;;;;;;;18.62;100.00;63928.41;5077086;28;20231;-74
2023/07/27 00:11:46;;;;;;;9.75;8.73;;;;;;;18.55;100.00;63925.78;5087219;28;20289;-79
2023/07/27 00:14:13;;;;;;;10.73;9.55;;;;;;;18.52;100.00;63917.50;5093363;28;20216;-78
2023/07/27 00:16:40;;;;;;;9.38;8.48;;;;;;;18.48;100.00;63910.72;5092539;28;20192;-80
2023/07/27 00:19:07;;;;;;;11.50;9.20;;;;;;;18.50;100.00;63910.75;5088502;28;20226;-80
2023/07/27 00:21:34;;;;;;;10.55;9.18;;;;;;;18.35;100.00;63900.25;5093491;28;20203;-79
2023/07/27 00:24:03;;;;;;;9.00;8.20;;;;;;;18.30;100.00;63897.63;5092137;28;20216;-79
2023/07/27 00:26:30;;;;;;;13.10;9.45;;;;;;;18.20;100.00;63885.16;5090246;28;20217;-78
2023/07/27 00:28:58;;;;;;;10.40;9.40;;;;;;;18.14;100.00;63881.47;5070981;28;20220;-79
2023/07/27 00:31:25;;;;;;;9.93;9.02;;;;;;;18.07;100.00;63869.03;5087093;28;20215;-79
2023/07/27 00:33:51;;;;;;;8.80;8.00;;;;;;;17.98;100.00;63856.56;5090725;28;20231;-77
2023/07/27 00:36:18;;;;;;;9.80;8.85;;;;;;;17.94;100.00;63857.56;5091647;28;20405;-78
2023/07/27 00:38:45;;;;;;;8.93;8.05;;;;;;;17.83;100.00;63846.09;5091955;28;20278;-78
2023/07/27 00:41:13;;;;;;;8.27;7.47;;;;;;;17.76;100.00;63834.16;5087944;28;20216;-78
2023/07/27 00:43:40;;;;;;;8.18;7.32;;;;;;;17.76;100.00;63841.91;5092425;28;20216;-78
2023/07/27 00:46:08;;;;;;;8.48;7.05;;;;;;;17.54;100.00;63813.84;5087962;28;20417;-78
2023/07/27 00:48:35;;;;;;;6.93;6.40;;;;;;;17.47;100.00;63806.53;5087417;28;20520;-80
2023/07/27 00:51:03;;;;;;;7.13;6.53;;;;;;;17.51;100.00;63813.28;5089266;28;20489;-81
2023/07/27 00:53:30;;;;;;;8.45;6.55;;;;;;;17.30;100.00;63791.41;5090324;28;20265;-78
2023/07/27 00:55:59;;;;;;;6.13;5.63;;;;;;;17.21;100.00;63779.44;5091822;28;20195;-80
2023/07/27 00:58:27;;;;;;;7.57;6.80;;;;;;;17.29;100.00;63790.38;5090464;28;20286;-79
2023/07/27 01:00:54;;;;;;;7.32;6.22;;;;;;;17.29;100.00;63788.31;5087817;28;20200;-78
2023/07/27 01:03:21;;;;;;;6.03;5.53;;;;;;;17.37;100.00;63798.16;5089608;28;20287;-78
2023/07/27 01:05:49;;;;;;;6.53;5.18;;;;;;;17.33;100.00;63795.03;5087050;28;20220;-79
2023/07/27 01:08:16;;;;;;;5.60;5.03;;;;;;;17.24;100.00;63785.16;5088371;28;20216;-79
2023/07/27 01:10:56;;;;;;;5.93;5.53;;;;;;;17.33;100.00;63791.94;5086527;28;20246;-78
2023/07/27 01:13:32;;;;;;;5.80;5.38;;;;;;;17.25;100.00;63781.06;5070710;28;20252;-80
2023/07/27 01:16:05;;;;;;;5.75;4.28;;;;;;;17.15;100.00;63773.22;5083468;28;20200;-77
2023/07/27 01:18:41;;;;;;;4.70;4.40;;;;;;;17.20;100.00;63781.00;5089987;28;20242;-78
2023/07/27 01:21:15;;;;;;;4.32;4.03;;;;;;;17.25;100.00;63779.00;5085105;28;20225;-78
2023/07/27 01:24:25;;;;;;;4.32;4.03;;;;;;;17.32;100.00;63794.00;5079221;28;20337;-79
2023/07/27 01:27:21;;;;;;;5.43;3.38;;;;;;;17.25;100.00;63786.72;5088307;28;20214;-79
2023/07/27 01:30:08;;;;;;;2.67;2.58;;;;;;;17.13;100.00;63771.66;5088342;28;20200;-78
2023/07/27 01:32:40;;;;;;;2.70;2.60;;;;;;;17.08;100.00;63768.50;5071600;28;20216;-77
2023/07/27 01:35:12;;;;;;;3.25;2.95;;;;;;;17.09;100.00;63764.38;5067278;28;20209;-78
2023/07/27 01:37:42;;;;;;;2.25;2.03;;;;;;;16.87;100.00;63744.06;5089263;28;20262;-78
2023/07/27 01:40:13;;;;;;;3.55;3.35;;;;;;;16.89;100.00;63743.59;5089961;28;20233;-78
2023/07/27 01:42:42;;;;;;;3.28;2.95;;;;;;;16.94;100.00;63751.34;5075489;28;20574;-78
2023/07/27 01:45:11;;;;;;;3.58;3.38;;;;;;;16.79;100.00;63736.25;5067765;28;20239;-78
2023/07/27 01:47:43;;;;;;;4.53;3.13;;;;;;;16.75;100.00;63734.69;5069051;28;20207;-78
2023/07/27 01:50:12;;;;;;;3.20;3.10;;;;;;;16.76;100.00;63732.63;5077013;28;20200;-80
2023/07/27 01:52:40;;;;;;;3.67;3.38;;;;;;;16.76;100.00;63732.63;5086164;28;20620;-79
2023/07/27 01:55:10;;;;;;;3.67;3.47;;;;;;;16.75;100.00;63731.59;5087571;28;20199;-77
2023/07/27 01:57:37;;;;;;;3.35;3.15;;;;;;;16.67;100.00;63726.34;5088585;28;20552;-77
2023/07/27 02:00:05;;;;;;;4.68;4.38;;;;;;;16.61;100.00;63720.09;5081564;28;20215;-80
2023/07/27 02:02:32;;;;;;;5.55;3.60;;;;;;;16.70;100.00;63726.38;5086261;28;20215;-77
2023/07/27 02:05:01;;;;;;;4.20;3.83;;;;;;;16.76;100.00;63735.19;5087566;28;20218;-79
2023/07/27 02:07:29;;;;;;;4.30;4.10;;;;;;;16.74;100.00;63730.56;5086663;28;20243;-77
2023/07/27 02:09:56;;;;;;;4.53;4.00;;;;;;;16.73;100.00;63730.03;5084903;28;20261;-77
2023/07/27 02:12:28;;;;;;;3.88;3.78;;;;;;;16.78;100.00;63734.69;5085681;28;20251;-79
2023/07/27 02:15:02;;;;;;;4.32;4.05;;;;;;;16.67;100.00;63725.84;5084331;28;20238;-79
2023/07/27 02:17:35;;;;;;;4.30;4.07;;;;;;;16.72;100.00;63723.31;5090735;28;20244;-78
2023/07/27 02:20:11;;;;;;;5.10;4.70;;;;;;;16.79;100.00;63733.69;5087113;28;20214;-77
2023/07/27 02:22:41;;;;;;;4.97;4.68;;;;;;;16.77;100.00;63736.25;5082086;28;20195;-79
2023/07/27 02:25:09;;;;;;;5.32;4.93;;;;;;;16.86;100.00;63740.97;5086204;28;20200;-78
2023/07/27 02:27:36;;;;;;;5.47;5.07;;;;;;;16.83;100.00;63740.44;5083134;28;20245;-79
2023/07/27 02:30:05;;;;;;;5.55;5.20;;;;;;;16.73;100.00;63724.88;5087574;28;20371;-79
2023/07/27 02:32:32;;;;;;;7.80;5.72;;;;;;;16.79;100.00;63736.25;5089941;28;20257;-75
2023/07/27 02:34:59;;;;;;;6.13;5.72;;;;;;;16.77;100.00;63734.19;5087441;28;20223;-78
2023/07/27 02:37:28;;;;;;;7.60;6.88;;;;;;;16.79;100.00;63738.81;5078386;28;20204;-76
2023/07/27 02:39:55;;;;;;;6.80;6.30;;;;;;;16.76;100.00;63733.13;5086977;28;20207;-77
2023/07/27 02:42:21;;;;;;;8.05;7.22;;;;;;;16.79;100.00;63735.75;5074833;28;20228;-78
2023/07/27 02:44:50;;;;;;;7.35;6.75;;;;;;;16.86;100.00;63745.59;5069225;28;20197;-78
2023/07/27 02:47:17;;;;;;;7.60;7.00;;;;;;;16.86;100.00;63746.13;5085090;28;20208;-77
2023/07/27 02:49:44;;;;;;;7.35;6.72;;;;;;;16.83;100.00;63737.31;5090719;28;20253;-77
2023/07/27 02:52:11;;;;;;;7.35;6.75;;;;;;;16.86;99.66;63746.13;5092502;28;20235;-76
2023/07/27 02:54:39;;;;;;;7.97;7.28;;;;;;;16.99;100.00;63759.66;5081619;28;20216;-77
2023/07/27 02:57:06;;;;;;;6.47;5.90;;;;;;;16.89;99.19;63741.00;5066280;28;20207;-75
2023/07/27 02:59:33;;;;;;;7.40;6.68;;;;;;;16.93;98.85;63747.72;5075799;28;20403;-77
2023/07/27 03:02:00;;;;;;;7.65;6.95;;;;;;;16.86;97.35;63740.97;5082442;28;20196;-77
2023/07/27 03:04:27;;;;;;;7.22;6.60;;;;;;;16.92;98.12;63752.38;5084407;28;20218;-77
2023/07/27 03:06:54;;;;;;;7.13;6.60;;;;;;;16.84;98.23;63746.09;5089406;28;20203;-77
2023/07/27 03:09:21;;;;;;;6.55;6.05;;;;;;;16.84;95.52;63740.94;5082845;28;20223;-77
2023/07/27 03:11:49;;;;;;;6.88;6.43;;;;;;;16.78;95.84;63732.66;5066361;28;20224;-76
2023/07/27 03:14:16;;;;;;;6.13;5.72;;;;;;;16.66;97.76;63720.16;5082270;28;20277;-77
2023/07/27 03:16:43;;;;;;;6.13;5.53;;;;;;;16.60;97.36;63719.06;5087412;28;20200;-77
2023/07/27 03:19:10;;;;;;;7.25;6.70;;;;;;;16.53;97.72;63711.78;5073575;28;20227;-78
2023/07/27 03:21:37;;;;;;;6.45;6.05;;;;;;;16.58;96.95;63716.47;5086610;28;20234;-78
2023/07/27 03:24:04;;;;;;;6.70;6.05;;;;;;;16.49;98.07;63707.63;5087336;28;20219;-79
2023/07/27 03:26:32;;;;;;;5.70;5.32;;;;;;;16.33;93.73;63688.38;5085897;28;20415;-77
2023/07/27 03:29:00;;;;;;;6.10;5.55;;;;;;;16.37;91.92;63689.97;5080654;28;20318;-76
2023/07/27 03:31:28;;;;;;;6.47;6.07;;;;;;;16.40;90.27;63690.53;5081837;28;20199;-77
2023/07/27 03:33:55;;;;;;;6.57;6.07;;;;;;;16.44;88.22;63699.31;5085240;28;20227;-77
2023/07/27 03:36:22;;;;;;;6.45;5.85;;;;;;;16.47;86.94;63705.53;5089873;28;20207;-77
2023/07/27 03:38:50;;;;;;;4.70;4.40;;;;;;;16.40;82.13;63693.09;5086748;28;20220;-79
2023/07/27 03:41:17;;;;;;;4.05;3.85;;;;;;;16.48;80.22;63704.00;5083161;28;20209;-79
2023/07/27 03:43:44;;;;;;;5.05;4.65;;;;;;;16.53;80.09;63711.78;5086005;28;20240;-77
2023/07/27 03:46:12;;;;;;;3.47;3.20;;;;;;;16.53;76.54;63708.69;5087094;28;20546;-77
2023/07/27 03:48:40;;;;;;;3.90;3.70;;;;;;;16.60;77.47;63718.56;5093584;28;20227;-76
2023/07/27 03:51:07;;;;;;;3.63;3.30;;;;;;;16.62;76.64;63720.63;5089704;28;20297;-78
2023/07/27 03:53:33;;;;;;;3.20;3.10;;;;;;;16.67;73.17;63726.34;5088189;28;20244;-75
2023/07/27 03:56:01;;;;;;;3.08;2.97;;;;;;;16.68;73.08;63724.28;5089274;28;20234;-78
2023/07/27 03:58:29;;;;;;;2.58;2.20;;;;;;;16.71;71.08;63730.50;5086989;28;20223;-76
2023/07/27 04:00:56;;;;;;;3.17;2.97;;;;;;;16.64;75.41;63725.28;5087500;28;20199;-77
2023/07/27 04:03:24;;;;;;;3.85;3.55;;;;;;;16.68;76.46;63724.28;5080050;28;20219;-78
2023/07/27 04:05:52;;;;;;;3.70;3.50;;;;;;;16.77;77.73;63734.19;5089546;28;20263;-78
2023/07/27 04:08:18;;;;;;;3.67;3.47;;;;;;;16.74;76.97;63733.13;5095077;28;20219;-78
2023/07/27 04:10:45;;;;;;;3.38;3.17;;;;;;;16.51;76.77;63706.59;5087074;28;20729;-74
2023/07/27 04:13:15;;;;;;;3.33;3.22;;;;;;;16.64;77.07;63718.09;5088853;28;20231;-79
2023/07/27 04:15:42;;;;;;;3.28;3.08;;;;;;;16.56;78.51;63709.75;5084592;28;20221;-78
2023/07/27 04:18:10;;;;;;;3.45;3.35;;;;;;;16.66;78.07;63724.78;5089214;28;20216;-78
2023/07/27 04:20:39;;;;;;;3.22;3.13;;;;;;;16.55;77.92;63705.63;5090788;28;20203;-76
2023/07/27 04:23:06;;;;;;;3.28;3.17;;;;;;;16.56;78.46;63712.34;5090395;28;20230;-79
2023/07/27 04:25:32;;;;;;;3.60;3.40;;;;;;;16.46;79.04;63703.97;5088391;28;20211;-77
2023/07/27 04:28:00;;;;;;;3.75;3.58;;;;;;;16.46;80.35;63701.38;5086832;28;20248;-79
2023/07/27 04:30:27;;;;;;;3.90;3.70;;;;;;;16.38;80.97;63693.06;5090675;28;20198;-82
2023/07/27 04:32:54;;;;;;;3.92;3.63;;;;;;;16.33;80.24;63693.53;5083609;28;20280;-79
2023/07/27 04:35:21;;;;;;;3.47;3.38;;;;;;;16.28;79.66;63680.59;5087710;28;20206;-81
2023/07/27 04:37:49;;;;;;;2.72;2.63;;;;;;;16.34;78.02;63689.44;5089678;28;20319;-77
2023/07/27 04:40:19;;;;;;;2.28;2.17;;;;;;;16.15;77.41;63667.59;5088907;28;20204;-77
2023/07/27 04:42:46;;;;;;;2.85;2.65;;;;;;;16.19;78.66;63676.91;5081236;28;20220;-76
2023/07/27 04:45:13;;;;;;;2.28;2.17;;;;;;;15.86;79.01;63636.91;5087246;28;20192;-76
2023/07/27 04:47:40;;;;;;;2.65;2.55;;;;;;;16.06;79.36;63660.31;5087845;28;20242;-77
2023/07/27 04:50:08;;;;;;;2.50;2.40;;;;;;;16.22;76.49;63676.94;5087174;28;20324;-75
2023/07/27 04:52:35;;;;;;;3.33;2.53;;;;;;;16.28;75.80;63683.19;5088479;28;20267;-77
2023/07/27 04:55:05;;;;;;;3.03;2.88;;;;;;;16.23;77.06;63674.88;5088053;28;20268;-80
2023/07/27 04:57:32;;;;;;;3.10;2.75;;;;;;;16.20;76.05;63677.44;5092286;28;20195;-77
2023/07/27 04:59:59;;;;;;;2.47;2.38;;;;;;;16.19;75.74;63676.38;5090146;28;20193;-79
2023/07/27 05:02:26;;;;;;;2.78;2.67;;;;;;;16.32;76.77;63684.25;5085408;28;20204;-78
2023/07/27 05:04:53;;;;;;;2.10;2.10;;;;;;;16.13;78.26;63668.09;5088771;28;20204;-76
2023/07/27 05:07:21;;;;;;;3.00;2.80;;;;;;;16.17;79.86;63674.31;5091920;28;20196;-76
2023/07/27 05:09:48;;;;;;;2.67;2.50;;;;;;;16.03;81.11;63660.25;5085595;28;20219;-80
2023/07/27 05:12:20;;;;;;;3.83;2.85;;;;;;;16.14;79.56;63666.56;5072363;28;20193;-78
2023/07/27 05:14:47;;;;;;;2.30;2.20;;;;;;;16.11;79.25;63662.94;5075438;28;20267;-76
2023/07/27 05:17:14;;;;;;;2.80;2.70;;;;;;;16.07;79.97;63664.44;5068438;28;20227;-76
2023/07/27 05:19:41;;;;;;;2.63;2.53;;;;;;;16.26;79.25;63683.16;5088082;28;20291;-77
2023/07/27 05:22:08;;;;;;;5.85;2.90;;;;;;;15.94;80.71;63645.78;5086906;28;20212;-76
2023/07/27 05:24:35;;;;;;;2.78;2.67;;;;;;;16.17;80.85;63674.31;5073157;28;20216;-81
2023/07/27 05:27:02;;;;;;;2.58;2.47;;;;;;;16.18;80.06;63670.75;5074229;28;20199;-78
2023/07/27 05:29:31;;;;;;;2.63;2.53;;;;;;;16.39;75.35;63691.53;5090020;28;20219;-78
2023/07/27 05:31:58;;;;;;;2.42;2.35;;;;;;;16.39;72.52;63692.06;5092654;28;20237;-79
2023/07/27 05:34:25;;;;;;;3.00;2.90;;;;;;;16.27;70.54;63684.19;5079007;28;20228;-78
2023/07/27 05:36:52;;;;;;;3.08;2.85;;;;;;;16.36;70.57;63691.50;5081155;28;20204;-80
2023/07/27 05:39:18;;;;;;;2.58;2.40;;;;;;;16.08;72.45;63662.91;5085705;28;20223;-78
2023/07/27 05:41:45;;;;;;;2.65;2.55;;;;;;;16.20;72.27;63677.94;5087900;28;20196;-81
2023/07/27 05:44:12;;;;;;;2.63;2.35;;;;;;;16.07;73.69;63661.34;5068533;28;20262;-80
2023/07/27 05:46:40;;;;;;;4.38;2.63;;;;;;;16.30;73.11;63687.84;5072289;28;20185;-82
2023/07/27 05:49:07;;;;;;;2.97;2.72;;;;;;;16.27;72.54;63681.63;5073212;28;20322;-77
2023/07/27 05:51:34;;;;;;;2.40;2.30;;;;;;;16.39;71.58;63697.19;5083777;28;20225;-79
2023/07/27 05:54:02;;;;;;;3.05;2.90;;;;;;;16.46;72.07;63701.38;5085666;28;20251;-76
2023/07/27 05:56:32;;;;;;;2.50;2.40;;;;;;;16.42;67.86;63697.22;5081698;28;20351;-77
2023/07/27 05:58:59;;;;;;;2.00;1.90;;;;;;;16.39;67.44;63688.97;5087337;28;20220;-83
2023/07/27 06:01:26;;;;;;;2.72;2.63;;;;;;;16.36;67.28;63691.00;5090642;28;20259;-78
2023/07/27 06:03:54;;;;;;;2.20;2.10;;;;;;;16.26;66.63;63678.53;5081930;28;20220;-80
2023/07/27 06:06:21;;;;;;;2.70;2.60;;;;;;;16.08;68.24;63657.25;5067256;28;20260;-75
2023/07/27 06:08:48;;;;;;;2.53;2.42;;;;;;;16.12;66.90;63661.91;5068078;28;20213;-77
2023/07/27 06:11:17;;;;;;;2.47;2.28;;;;;;;16.06;66.96;63658.25;5069795;28;20219;-80
2023/07/27 06:13:46;;;;;;;3.05;2.85;;;;;;;16.10;67.48;63661.91;5084302;28;20250;-77
2023/07/27 06:16:15;;;;;;;2.72;2.63;;;;;;;15.97;63.93;63650.94;5094009;28;20196;-79
2023/07/27 06:18:41;;;;;;;2.30;2.10;;;;;;;15.89;64.40;63637.50;5085309;28;20216;-76
2023/07/27 06:21:10;;;;;;;1.98;1.88;;;;;;;15.86;62.92;63637.44;5085399;28;20200;-76
2023/07/27 06:23:37;;;;;;;2.03;1.92;;;;;;;16.00;63.73;63654.06;5089197;28;20280;-80
2023/07/27 06:26:04;;;;;;;2.10;2.00;;;;;;;15.87;64.69;63643.13;5086028;28;20204;-81
2023/07/27 06:28:31;;;;;;;2.20;2.10;;;;;;;15.94;64.46;63645.78;5085355;28;20222;-78
2023/07/27 06:30:57;;;;;;;1.92;1.83;;;;;;;15.98;62.67;63649.41;5082729;28;20242;-78
2023/07/27 06:33:24;;;;;;;1.55;1.55;;;;;;;16.11;62.43;63662.94;5088948;28;20286;-76
2023/07/27 06:35:52;;;;;;;1.70;1.60;;;;;;;16.30;61.66;63680.13;5078469;28;20271;-81
2023/07/27 06:38:20;;;;;;;1.75;1.73;;;;;;;16.42;60.90;63700.31;5088138;28;20250;-80
2023/07/27 06:40:47;;;;;;;1.55;1.55;;;;;;;16.43;62.87;63688.50;5087963;28;20226;-79
2023/07/27 06:43:14;;;;;;;1.88;1.88;;;;;;;16.44;61.14;63697.25;5085191;28;20220;-77
2023/07/27 06:45:42;;;;;;;1.83;1.73;;;;;;;16.53;60.22;63706.63;5083767;28;20200;-78
2023/07/27 06:48:10;;;;;;;3.10;1.90;;;;;;;16.52;59.73;63702.50;5087718;28;20288;-79
2023/07/27 06:50:37;;;;;;;1.73;1.63;;;;;;;16.73;59.49;63732.59;5090819;28;20507;-79
2023/07/27 06:53:04;;;;;;;1.80;1.70;;;;;;;16.83;57.93;63737.31;5086153;28;20220;-78
2023/07/27 06:55:33;;;;;;;2.08;1.83;;;;;;;17.12;56.93;63765.47;5085670;28;20245;-80
2023/07/27 06:58:01;;;;;;;2.08;1.35;;;;;;;17.28;55.92;63784.16;5080170;28;20218;-80
2023/07/27 07:00:29;;;;;;;1.63;1.52;;;;;;;17.58;55.17;63815.44;5088865;28;20192;-79
2023/07/27 07:02:56;;;;;;;1.55;1.48;;;;;;;17.69;53.34;63823.78;5085506;28;20224;-78
2023/07/27 07:05:23;;;;;;;2.45;1.35;;;;;;;17.78;53.47;63835.72;5091635;28;20200;-78
2023/07/27 07:07:52;;;;;;;1.58;1.58;;;;;;;18.05;52.89;63863.88;5086691;28;20216;-78
2023/07/27 07:10:20;;;;;;;1.73;1.63;;;;;;;18.17;51.78;63876.88;5087311;28;20192;-80
2023/07/27 07:12:48;;;;;;;1.45;1.42;;;;;;;18.35;51.83;63892.53;5070705;28;20303;-79
2023/07/27 07:15:15;;;;;;;1.38;1.27;;;;;;;18.01;52.15;63859.69;5064299;28;20266;-77
2023/07/27 07:17:42;;;;;;;2.33;1.73;;;;;;;18.22;52.78;63882.06;5074291;28;20196;-78
2023/07/27 07:20:10;;;;;;;1.33;1.23;;;;;;;18.37;51.21;63899.78;5086944;28;20374;-78
2023/07/27 07:22:37;;;;;;;1.58;1.20;;;;;;;18.23;51.41;63882.59;5084001;28;20196;-78
2023/07/27 07:25:05;;;;;;;0.75;0.75;;;;;;;18.29;51.49;63891.44;5088323;28;20208;-79
2023/07/27 07:27:33;;;;;;;2.28;1.58;;;;;;;18.17;51.58;63878.94;5088650;28;20192;-79
2023/07/27 07:30:04;;;;;;;1.48;1.48;;;;;;;18.12;53.01;63876.81;5085386;28;20493;-78
2023/07/27 07:32:31;;;;;;;1.20;1.20;;;;;;;18.34;52.75;63894.56;5088521;28;20204;-76
2023/07/27 07:34:58;;;;;;;1.35;1.35;;;;;;;18.56;51.27;63916.47;5084499;28;20238;-78
2023/07/27 07:37:25;;;;;;;1.70;1.60;;;;;;;18.37;52.00;63900.31;5071402;28;20204;-78
2023/07/27 07:39:52;;;;;;;1.85;1.73;;;;;;;18.40;51.38;63897.75;5078316;28;20253;-79
2023/07/27 07:42:19;;;;;;;1.77;1.65;;;;;;;18.57;51.97;63918.03;5088082;28;20196;-79
2023/07/27 07:44:47;;;;;;;2.65;1.58;;;;;;;18.56;53.14;63919.06;5089075;28;20228;-81
2023/07/27 07:47:16;;;;;;;1.48;1.38;;;;;;;18.45;52.17;63908.13;5075049;28;20200;-76
2023/07/27 07:49:43;;;;;;;1.45;1.45;;;;;;;18.57;51.22;63914.97;5077711;28;20215;-78
2023/07/27 07:52:10;;;;;;;2.42;1.70;;;;;;;18.77;49.96;63938.91;5077366;28;20247;-77
2023/07/27 07:54:37;;;;;;;2.67;2.05;;;;;;;18.77;49.24;63938.91;5076367;28;20232;-76
2023/07/27 07:57:04;;;;;;;2.47;1.70;;;;;;;18.94;49.94;63956.63;5086116;28;20196;-80
2023/07/27 07:59:32;;;;;;;1.60;1.58;;;;;;;18.70;51.17;63929.03;5078802;28;20425;-79
2023/07/27 08:01:59;;;;;;;1.38;1.38;;;;;;;18.79;49.91;63941.00;5080309;28;20517;-77
2023/07/27 08:04:30;;;;;;;1.35;1.25;;;;;;;18.73;49.52;63939.88;5081298;28;20216;-77
2023/07/27 08:06:57;;;;;;;1.42;1.42;;;;;;;18.99;49.19;63964.41;5076337;28;20208;-79
2023/07/27 08:09:24;;;;;;;1.80;1.27;;;;;;;19.29;49.14;63995.69;5081839;28;20226;-76
2023/07/27 08:11:52;;;;;;;1.92;1.83;;;;;;;19.31;48.84;63992.63;5082757;28;20222;-79
2023/07/27 08:14:19;;;;;;;2.63;1.52;;;;;;;18.87;49.99;63948.78;5086500;28;20231;-75
2023/07/27 08:16:46;;;;;;;2.03;1.92;;;;;;;18.44;51.51;63909.66;5080981;28;20279;-75
2023/07/27 08:19:13;;;;;;;1.20;1.20;;;;;;;18.54;50.66;63911.81;5077712;28;20216;-77
2023/07/27 08:21:41;;;;;;;1.63;1.52;;;;;;;18.54;50.60;63917.50;5079167;28;20600;-77
2023/07/27 08:24:08;;;;;;;1.40;1.38;;;;;;;18.62;51.40;63918.09;5077974;28;20223;-76
2023/07/27 08:26:36;;;;;;;4.70;2.00;;;;;;;18.73;50.60;63939.38;5075440;28;20208;-77
2023/07/27 08:29:03;;;;;;;1.75;1.65;;;;;;;18.87;48.91;63951.38;5087113;28;20212;-80
2023/07/27 08:31:30;;;;;;;1.65;1.60;;;;;;;18.85;49.22;63946.72;5081272;28;20201;-82
2023/07/27 08:33:57;;;;;;;1.20;1.20;;;;;;;18.40;50.53;63903.44;5073845;28;20248;-75
2023/07/27 08:36:24;;;;;;;1.50;1.48;;;;;;;18.36;50.92;63901.81;5075263;28;20216;-75
2023/07/27 08:38:53;;;;;;;1.73;1.63;;;;;;;18.55;50.81;63918.03;5074280;28;20220;-77
2023/07/27 08:41:20;;;;;;;1.55;1.30;;;;;;;18.91;50.01;63958.66;5080202;28;20256;-78
2023/07/27 08:43:47;;;;;;;2.13;1.42;;;;;;;19.13;49.52;63971.28;5075649;28;20224;-77
2023/07/27 08:46:15;;;;;;;1.30;1.20;;;;;;;19.01;48.85;63966.50;5086483;28;20247;-77
2023/07/27 08:48:43;;;;;;;1.50;1.40;;;;;;;19.03;49.58;63966.00;5079065;28;20223;-76
2023/07/27 08:51:10;;;;;;;3.90;1.70;;;;;;;19.06;50.36;63971.19;5079329;28;20198;-79
2023/07/27 08:53:37;;;;;;;1.75;1.65;;;;;;;19.33;50.30;63997.31;5075619;28;20213;-76
2023/07/27 08:56:06;;;;;;;2.67;1.50;;;;;;;19.40;48.33;64006.66;5076894;28;20489;-80
2023/07/27 08:58:33;;;;;;;2.67;1.38;;;;;;;19.49;46.76;64014.00;5075720;28;20563;-80
2023/07/27 09:01:00;;;;;;;1.25;1.13;;;;;;;19.09;47.97;63969.16;5082771;28;20208;-76
2023/07/27 09:03:27;;;;;;;2.25;1.13;;;;;;;18.42;49.24;63899.84;5079801;28;20238;-74
2023/07/27 09:05:58;;;;;;;1.00;1.00;;;;;;;18.53;50.08;63911.31;5079196;28;20207;-76
2023/07/27 09:08:29;;;;;;;4.90;1.83;;;;;;;18.87;49.83;63948.78;5076244;28;20217;-78
2023/07/27 09:11:07;;;;;;;1.00;1.00;;;;;;;18.83;49.67;63950.31;5077192;28;20207;-76
2023/07/27 09:13:36;;;;;;;3.38;1.10;;;;;;;18.46;49.72;63909.19;5075673;28;20216;-75
2023/07/27 09:16:05;;;;;;;1.70;1.60;;;;;;;18.90;50.81;63955.03;5078990;28;20532;-77
2023/07/27 09:18:36;;;;;;;2.95;1.50;;;;;;;19.01;50.08;63966.50;5075012;28;20208;-76
2023/07/27 09:21:08;;;;;;;3.17;1.27;;;;;;;19.20;48.45;63986.31;5082742;28;20188;-77
2023/07/27 09:23:36;;;;;;;1.58;1.40;;;;;;;19.39;48.89;64005.63;5085410;28;20217;-77
2023/07/27 09:26:07;;;;;;;1.45;1.30;;;;;;;18.96;49.12;63961.28;5076128;28;20204;-79
2023/07/27 09:28:34;;;;;;;3.80;1.52;;;;;;;19.09;49.00;63977.41;5075436;28;20262;-78
2023/07/27 09:31:03;;;;;;;1.33;1.30;;;;;;;19.12;49.71;63977.97;5073405;28;20209;-78
2023/07/27 09:33:31;;;;;;;1.67;1.40;;;;;;;18.94;50.38;63956.63;5076583;28;20220;-77
2023/07/27 09:35:58;;;;;;;2.60;1.20;;;;;;;19.14;49.94;63974.88;5079291;28;20425;-76
2023/07/27 09:38:26;;;;;;;1.25;1.25;;;;;;;19.26;49.21;63984.81;5085551;28;20216;-75
2023/07/27 09:40:52;;;;;;;1.40;1.38;;;;;;;19.37;49.04;64003.53;5078959;28;20207;-77
2023/07/27 09:43:23;;;;;;;1.33;1.30;;;;;;;19.47;47.83;64011.91;5076278;28;20478;-77
2023/07/27 09:45:56;;;;;;;2.35;1.35;;;;;;;19.54;47.59;64018.69;5079245;28;20196;-78
2023/07/27 09:48:24;;;;;;;2.97;1.52;;;;;;;19.49;48.89;64011.41;5072923;28;20254;-78
2023/07/27 09:50:52;;;;;;;1.30;1.30;;;;;;;19.68;47.25;64032.75;5072617;28;20204;-76
2023/07/27 09:53:21;;;;;;;1.48;1.48;;;;;;;19.32;48.35;63996.25;5083206;28;20215;-77
2023/07/27 09:55:49;;;;;;;2.97;1.70;;;;;;;19.39;47.59;64005.63;5082155;28;20449;-76
2023/07/27 09:58:16;;;;;;;1.55;1.45;;;;;;;19.41;46.89;64003.06;5079149;28;20220;-77
2023/07/27 10:00:44;;;;;;;2.85;1.42;;;;;;;19.11;47.31;63973.81;5078449;28;20235;-77
2023/07/27 10:03:11;;;;;;;2.35;1.40;;;;;;;19.08;48.05;63975.84;5074435;28;20468;-78
2023/07/27 10:05:39;;;;;;;1.60;1.55;;;;;;;19.46;47.37;64007.75;5077370;28;20195;-80
2023/07/27 10:08:07;;;;;;;1.70;1.52;;;;;;;19.47;46.72;64011.91;5075506;28;20216;-76
2023/07/27 10:10:38;;;;;;;6.90;1.73;;;;;;;19.73;47.82;64038.50;5084113;28;20219;-77
2023/07/27 10:13:08;;;;;;;1.23;1.13;;;;;;;19.51;46.47;64015.56;5080077;28;20560;-76
2023/07/27 10:15:41;;;;;;;1.73;1.63;;;;;;;19.53;47.59;64020.72;5078222;28;20238;-77
2023/07/27 10:18:14;;;;;;;1.50;1.50;;;;;;;19.66;44.80;64036.34;5078627;28;20262;-76
2023/07/27 10:20:41;;;;;;;1.80;1.80;;;;;;;19.79;45.00;64044.22;5076865;28;20220;-77
2023/07/27 10:23:13;;;;;;;1.20;1.20;;;;;;;19.78;45.30;64048.34;5080363;28;20241;-77
2023/07/27 10:26:06;;;;;;;1.27;1.27;;;;;;;19.60;44.84;64027.53;5076482;28;20214;-76
2023/07/27 10:28:37;;;;;;;1.92;1.83;;;;;;;19.94;44.49;64067.63;5074005;28;20220;-80
2023/07/27 10:31:24;;;;;;;1.90;1.80;;;;;;;20.00;44.49;64066.16;5076596;28;20219;-78
2023/07/27 10:34:03;;;;;;;1.30;1.30;;;;;;;20.05;43.50;64074.47;5073948;28;20295;-78
2023/07/27 10:36:52;;;;;;;1.33;1.33;;;;;;;20.21;42.60;64090.66;5072623;28;20220;-79
2023/07/27 10:39:25;;;;;;;1.83;1.83;;;;;;;20.38;42.54;64111.00;5074463;28;20226;-77
2023/07/27 10:42:01;;;;;;;1.42;1.42;;;;;;;20.20;43.21;64089.63;5076435;28;20196;-77
2023/07/27 10:44:28;;;;;;;1.55;1.50;;;;;;;20.08;44.15;64075.00;5081191;28;20220;-78
2023/07/27 10:46:59;;;;;;;2.25;1.67;;;;;;;19.84;43.28;64052.03;5076995;28;20218;-77
2023/07/27 10:49:28;;;;;;;1.95;1.85;;;;;;;19.95;43.72;64064.03;5074275;28;20243;-78
2023/07/27 10:51:56;;;;;;;1.85;1.50;;;;;;;20.08;43.88;64074.50;5075809;28;20200;-79
2023/07/27 10:54:23;;;;;;;1.92;1.80;;;;;;;20.10;42.04;64076.56;5077221;28;20258;-78
2023/07/27 10:56:54;;;;;;;2.00;1.90;;;;;;;20.27;41.56;64096.91;5080208;28;20240;-76
2023/07/27 10:59:22;;;;;;;1.80;1.70;;;;;;;20.37;41.05;64104.75;5088763;28;20258;-79
2023/07/27 11:01:51;;;;;;;1.60;1.50;;;;;;;20.24;42.10;64093.78;5080941;28;20200;-73
2023/07/27 11:04:18;;;;;;;1.80;1.80;;;;;;;20.39;42.02;64106.84;5082602;28;20212;-78
2023/07/27 11:06:47;;;;;;;3.72;1.77;;;;;;;20.36;42.37;64106.31;5081478;28;20419;-79
2023/07/27 11:09:16;;;;;;;2.08;1.85;;;;;;;20.46;42.13;64114.69;5079307;28;20603;-76
2023/07/27 11:11:43;;;;;;;2.10;1.85;;;;;;;20.49;42.18;64119.88;5082787;28;20245;-77
2023/07/27 11:14:11;;;;;;;1.88;1.77;;;;;;;20.55;42.42;64126.66;5080447;28;20238;-77
2023/07/27 11:16:39;;;;;;;2.33;2.13;;;;;;;20.84;42.32;64153.31;5084667;28;20227;-77
2023/07/27 11:19:08;;;;;;;2.10;2.00;;;;;;;20.97;41.98;64167.41;5088868;28;20220;-77
2023/07/27 11:21:40;;;;;;;1.80;1.70;;;;;;;20.72;42.02;64141.31;5078242;28;20218;-76
2023/07/27 11:24:11;;;;;;;1.60;1.60;;;;;;;20.94;41.21;64166.84;5077929;28;20564;-78
2023/07/27 11:26:38;;;;;;;3.20;1.92;;;;;;;20.86;41.41;64158.50;5084470;28;20196;-77
2023/07/27 11:29:06;;;;;;;2.83;1.92;;;;;;;21.08;40.27;64184.09;5080585;28;20216;-77
2023/07/27 11:31:33;;;;;;;2.75;1.80;;;;;;;21.00;41.51;64170.53;5081787;28;20218;-76
2023/07/27 11:34:01;;;;;;;1.92;1.88;;;;;;;20.62;41.66;64133.97;5093850;28;20271;-79
2023/07/27 11:36:30;;;;;;;1.92;1.80;;;;;;;20.68;41.82;64134.53;5078540;28;20242;-78
2023/07/27 11:38:57;;;;;;;4.07;1.67;;;;;;;20.93;41.20;64167.88;5077545;28;20406;-75